Nicolau Vergueiro, Brazil
Current Conditions -  °F | °C
As of 12:00 PM on Monday 24 Nov 2014 (Local Time) from SBCH Reporting Station
Scattered Clouds Scattered Clouds  
Wind Chill: 84°   Ceiling: Unl
Heat Index: 87°   Visibility: 6mi
Dew Point: 68°   Wind: 9mph
Humidity: 58%   Direction: 20°NNE
Pressure: 29.97"   Gusts: NA
Location:  28.54°S, 52.46°W
Report Text: SBCH 241400Z 02008KT 9999 SCT035 29/20 Q1015
Loading
Personal Weather Stations






























Interactive Weather Map New forecast layout! Learn more

10-Day Weather Forecast

Advertisements
Track Severe Weather on mobile